Time;durP1;ratioP1;P1;durP2;ratioP2;P2;SDS_P1;SDS_P2;PMS_P1;PMS_P2;Temp;Humidity;BMP_temperature;BMP_pressure;BME280_temperature;BME280_humidity;BME280_pressure;Samples;Min_cycle;Max_cycle;Signal;HPM_P1;HPM_P2
2023/10/23 00:01:56;;;;;;;34.90;28.20;;;;;;;7.76;94.03;98667.96;224807;1286;22558;-75
2023/10/23 00:06:58;;;;;;;36.90;28.10;;;;;;;7.72;93.73;98672.75;224769;1289;22647;-75
2023/10/23 00:12:03;;;;;;;36.80;27.70;;;;;;;7.70;94.03;98673.89;224827;1286;22599;-75
2023/10/23 00:17:07;;;;;;;35.30;27.30;;;;;;;7.68;93.69;98674.30;224754;1289;24309;-75
2023/10/23 00:22:17;;;;;;;36.40;27.30;;;;;;;7.67;94.00;98682.09;224893;1286;24333;-76
2023/10/23 00:27:29;;;;;;;35.40;28.50;;;;;;;7.65;93.83;98686.70;224837;1286;22618;-75
2023/10/23 00:32:34;;;;;;;37.40;26.50;;;;;;;7.62;94.13;98689.79;224819;1289;22581;-75
2023/10/23 00:37:42;;;;;;;32.90;24.90;;;;;;;7.60;94.09;98693.94;224804;1288;22563;-75
2023/10/23 00:42:44;;;;;;;31.20;24.50;;;;;;;7.59;94.12;98695.33;224813;1289;22542;-75
2023/10/23 00:47:49;;;;;;;29.40;24.20;;;;;;;7.58;94.01;98691.39;224744;1289;25335;-75
2023/10/23 00:52:52;;;;;;;36.10;27.00;;;;;;;7.56;94.17;98700.06;224797;1284;22569;-75
2023/10/23 00:57:55;;;;;;;37.30;27.60;;;;;;;7.53;94.01;98706.83;224678;1289;22593;-75
2023/10/23 01:03:04;;;;;;;31.70;27.00;;;;;;;7.50;93.96;98704.73;224778;1286;22572;-75
2023/10/23 01:08:14;;;;;;;33.80;27.00;;;;;;;7.43;94.09;98709.52;224779;1289;22550;-74
2023/10/23 01:13:27;;;;;;;35.70;27.70;;;;;;;7.37;94.05;98707.16;224840;1286;22564;-74
2023/10/23 01:18:30;;;;;;;33.40;25.80;;;;;;;7.34;94.01;98707.52;224800;1286;22549;-76
2023/10/23 01:23:40;;;;;;;31.80;25.00;;;;;;;7.33;94.05;98708.83;224746;1289;22602;-74
2023/10/23 01:28:45;;;;;;;34.10;26.70;;;;;;;7.33;94.41;98706.95;224727;1289;22556;-74
2023/10/23 01:33:55;;;;;;;33.60;27.20;;;;;;;7.32;94.35;98709.13;224778;1286;22593;-75
2023/10/23 01:39:14;;;;;;;37.60;28.60;;;;;;;7.30;94.26;98708.83;224838;1285;22584;-74
2023/10/23 01:44:16;;;;;;;36.80;29.20;;;;;;;7.27;94.22;98711.77;224438;1289;322521;-74
2023/10/23 01:49:20;;;;;;;43.60;29.70;;;;;;;7.25;94.24;98707.30;224720;1289;22569;-74
2023/10/23 01:54:24;;;;;;;41.10;30.30;;;;;;;7.23;94.36;98704.56;224821;1282;22552;-74
2023/10/23 01:59:29;;;;;;;33.70;28.20;;;;;;;7.20;94.76;98704.53;224752;1289;22580;-75
2023/10/23 02:04:47;;;;;;;37.40;30.10;;;;;;;7.16;94.19;98698.98;224704;1289;22682;-74
2023/10/23 02:09:56;;;;;;;37.80;28.20;;;;;;;7.13;94.10;98697.78;224740;1289;22661;-75
2023/10/23 02:15:09;;;;;;;41.60;32.50;;;;;;;7.10;94.02;98705.82;224687;1285;22578;-74
2023/10/23 02:20:12;;;;;;;37.70;31.90;;;;;;;7.08;94.12;98701.02;224769;1286;22560;-75
2023/10/23 02:25:16;;;;;;;36.80;30.80;;;;;;;7.04;94.12;98696.79;224800;1286;24261;-74
2023/10/23 02:30:30;;;;;;;40.90;32.80;;;;;;;6.98;94.04;98700.41;224789;1286;22632;-74
2023/10/23 02:35:35;;;;;;;41.60;33.50;;;;;;;6.95;94.15;98703.77;224790;1286;22624;-74
2023/10/23 02:40:37;;;;;;;43.70;32.70;;;;;;;6.94;94.21;98711.98;224697;1289;22563;-75
2023/10/23 02:45:43;;;;;;;44.70;33.60;;;;;;;6.93;94.33;98719.93;224647;1289;22556;-74
2023/10/23 02:51:22;;;;;;;44.60;34.40;;;;;;;6.92;94.45;98725.67;224780;1286;22549;-74
2023/10/23 02:56:37;;;;;;;45.10;34.10;;;;;;;6.90;94.26;98729.88;224843;1282;22557;-74
2023/10/23 03:01:41;;;;;;;45.10;33.60;;;;;;;6.90;94.60;98733.02;224775;1286;22539;-75
2023/10/23 03:06:45;;;;;;;43.20;32.30;;;;;;;6.91;94.56;98734.17;224721;1289;22549;-74
2023/10/23 03:11:48;;;;;;;41.40;32.90;;;;;;;6.93;94.46;98728.73;224788;1289;23715;-74
2023/10/23 03:16:54;;;;;;;47.10;35.50;;;;;;;6.94;94.65;98732.11;224799;1283;22578;-75
2023/10/23 03:21:58;;;;;;;40.10;31.50;;;;;;;6.95;94.37;98731.09;224822;1283;22669;-74
2023/10/23 03:27:15;;;;;;;41.10;31.70;;;;;;;6.97;94.52;98729.45;224684;1289;22584;-74
2023/10/23 03:32:19;;;;;;;39.20;30.10;;;;;;;7.00;94.79;98734.55;224844;1286;22549;-74
2023/10/23 03:37:24;;;;;;;36.60;30.20;;;;;;;7.03;94.77;98735.11;224756;1286;22545;-74
2023/10/23 03:42:36;;;;;;;36.00;27.60;;;;;;;7.06;94.85;98732.29;224780;1289;22564;-75
2023/10/23 03:47:39;;;;;;;43.90;31.60;;;;;;;7.10;95.00;98736.89;224732;1286;22562;-74
2023/10/23 03:53:09;;;;;;;36.50;29.50;;;;;;;7.11;94.65;98737.41;224784;1289;22584;-75
2023/10/23 03:58:17;;;;;;;34.50;28.10;;;;;;;7.12;94.88;98741.19;224781;1288;22546;-74
2023/10/23 04:03:30;;;;;;;33.80;26.90;;;;;;;7.12;94.45;98742.36;224727;1289;22560;-74
2023/10/23 04:08:34;;;;;;;33.50;27.00;;;;;;;7.12;94.42;98746.04;224765;1286;22676;-74
2023/10/23 04:13:37;;;;;;;33.50;26.70;;;;;;;7.11;94.04;98759.64;224789;1283;22604;-75
2023/10/23 04:18:43;;;;;;;33.80;27.80;;;;;;;7.10;93.99;98762.92;224755;1283;22504;-74
2023/10/23 04:23:46;;;;;;;36.60;28.40;;;;;;;7.08;94.46;98760.13;224755;1286;22549;-74
2023/10/23 04:28:54;;;;;;;37.10;30.00;;;;;;;7.09;94.33;98758.16;224772;1283;25283;-74
2023/10/23 04:34:00;;;;;;;37.90;28.60;;;;;;;7.11;94.59;98754.41;224809;1286;22578;-74
2023/10/23 04:39:03;;;;;;;36.40;28.30;;;;;;;7.13;94.60;98754.96;224823;1286;24866;-74
2023/10/23 04:44:08;;;;;;;41.80;33.00;;;;;;;7.15;94.85;98766.21;224763;1289;22548;-74
2023/10/23 04:49:11;;;;;;;39.70;32.40;;;;;;;7.19;94.58;98774.55;224833;1289;22585;-73
2023/10/23 04:54:14;;;;;;;39.30;30.80;;;;;;;7.22;95.07;98778.80;224781;1289;22615;-75
2023/10/23 04:59:28;;;;;;;36.50;30.30;;;;;;;7.24;94.57;98782.90;224808;1289;22621;-74
2023/10/23 05:04:31;;;;;;;43.20;33.40;;;;;;;7.24;94.53;98778.34;224821;1284;22556;-74
2023/10/23 05:09:51;;;;;;;41.40;31.60;;;;;;;7.27;94.53;98780.93;224824;1289;25239;-75
2023/10/23 05:15:13;;;;;;;42.50;32.70;;;;;;;7.30;94.74;98781.07;224846;1289;22561;-74
2023/10/23 05:20:32;;;;;;;45.00;34.30;;;;;;;7.35;94.83;98777.33;224805;1289;22542;-75
2023/10/23 05:25:36;;;;;;;42.60;33.20;;;;;;;7.41;95.10;98779.31;224794;1289;22569;-73
2023/10/23 05:30:45;;;;;;;38.10;30.90;;;;;;;7.46;95.42;98788.07;224787;1286;22642;-76
2023/10/23 05:36:03;;;;;;;35.70;30.10;;;;;;;7.50;95.26;98797.77;224835;1289;23415;-75
2023/10/23 05:41:07;;;;;;;39.70;31.50;;;;;;;7.55;94.94;98804.43;224786;1286;22552;-75
2023/10/23 05:46:11;;;;;;;37.20;30.30;;;;;;;7.60;95.12;98816.30;224702;1286;22593;-74
2023/10/23 05:51:14;;;;;;;43.90;31.10;;;;;;;7.62;95.06;98825.66;224618;1282;22548;-75
2023/10/23 05:56:18;;;;;;;48.00;36.80;;;;;;;7.65;94.58;98832.80;224418;1289;22678;-74
2023/10/23 06:01:32;;;;;;;43.60;33.60;;;;;;;7.68;95.11;98839.73;224300;1283;22569;-79
2023/10/23 06:06:37;;;;;;;35.80;28.60;;;;;;;7.72;94.71;98839.86;224357;1283;22523;-74
2023/10/23 06:11:40;;;;;;;36.10;27.40;;;;;;;7.77;94.54;98844.59;224298;1272;23239;-73
2023/10/23 06:16:43;;;;;;;36.80;28.90;;;;;;;7.83;94.71;98849.00;224103;1283;23160;-76
2023/10/23 06:21:46;;;;;;;38.90;28.20;;;;;;;7.90;94.50;98854.52;224221;1270;22565;-72
2023/10/23 06:27:00;;;;;;;33.60;28.30;;;;;;;7.97;94.43;98846.21;224187;1272;22600;-74
2023/10/23 06:32:06;;;;;;;33.90;26.30;;;;;;;8.07;94.58;98851.60;224272;1288;22593;-74
2023/10/23 06:37:10;;;;;;;31.70;24.60;;;;;;;8.15;94.20;98852.42;224409;1285;22587;-74
2023/10/23 06:42:16;;;;;;;34.40;26.20;;;;;;;8.24;94.35;98857.59;224397;1283;22582;-77
2023/10/23 06:47:22;;;;;;;34.90;25.80;;;;;;;8.34;93.89;98863.62;224189;1284;23081;-75
2023/10/23 06:52:27;;;;;;;34.50;25.60;;;;;;;8.44;94.29;98856.67;224185;1286;22563;-75
2023/10/23 06:57:47;;;;;;;32.30;24.40;;;;;;;8.59;94.27;98855.40;224194;1286;24302;-76
2023/10/23 07:02:58;;;;;;;37.30;25.10;;;;;;;8.75;94.30;98851.33;224400;1283;22679;-75
2023/10/23 07:08:06;;;;;;;31.40;24.30;;;;;;;8.89;94.20;98851.43;224465;1283;22566;-76
2023/10/23 07:13:12;;;;;;;29.50;23.00;;;;;;;9.05;94.33;98849.27;224533;1274;25215;-74
2023/10/23 07:18:23;;;;;;;30.80;24.10;;;;;;;9.21;94.45;98858.44;224395;1283;22586;-75
2023/10/23 07:23:29;;;;;;;32.90;24.20;;;;;;;9.38;94.32;98863.70;224239;1286;22570;-75
2023/10/23 07:28:57;;;;;;;;;;;;;;;;;;;;;
2023/10/23 07:34:28;;;;;;;24.40;19.70;;;;;;;9.76;93.66;98867.50;224321;1273;22556;-76
2023/10/23 07:39:37;;;;;;;26.90;21.60;;;;;;;9.86;93.22;98864.11;224258;1287;22556;-77
2023/10/23 07:44:53;;;;;;;24.00;19.30;;;;;;;9.99;93.38;98865.64;224242;1285;22702;-76
2023/10/23 07:49:55;;;;;;;27.80;20.60;;;;;;;10.14;93.25;98869.83;224306;1289;22560;-76
2023/10/23 07:55:08;;;;;;;28.10;21.40;;;;;;;10.26;93.02;98864.81;224306;1287;22569;-77
2023/10/23 08:00:22;;;;;;;28.60;23.30;;;;;;;10.42;92.81;98871.52;224344;1287;22487;-80
2023/10/23 08:05:25;;;;;;;31.60;26.80;;;;;;;10.62;92.71;98871.92;224350;1282;22609;-78
2023/10/23 08:10:31;;;;;;;30.00;23.60;;;;;;;10.74;92.50;98869.23;224219;1268;22585;-78
2023/10/23 08:15:38;;;;;;;26.40;22.10;;;;;;;10.83;92.01;98873.21;224211;1278;22555;-77
2023/10/23 08:20:45;;;;;;;28.90;22.50;;;;;;;10.93;91.64;98874.42;224151;1283;23024;-78
2023/10/23 08:25:54;;;;;;;27.90;21.80;;;;;;;11.05;91.41;98877.55;224247;1277;22544;-77
2023/10/23 08:30:57;;;;;;;26.90;21.50;;;;;;;11.18;91.13;98873.63;224160;1266;22549;-77
2023/10/23 08:36:00;;;;;;;29.30;22.20;;;;;;;11.34;91.29;98873.75;224639;1283;22951;-78
2023/10/23 08:41:03;;;;;;;26.40;20.30;;;;;;;11.56;91.30;98874.16;224543;1274;22567;-77
2023/10/23 08:46:08;;;;;;;23.80;19.20;;;;;;;11.76;91.09;98877.04;224347;1280;22559;-77
2023/10/23 08:51:10;;;;;;;58.00;18.70;;;;;;;11.92;90.89;98878.86;224241;1287;22568;-77
2023/10/23 08:56:13;;;;;;;21.80;16.70;;;;;;;12.14;90.92;98884.88;224349;1288;24276;-78
2023/10/23 09:01:22;;;;;;;18.30;14.90;;;;;;;12.36;90.52;98889.69;224459;1285;22625;-77
2023/10/23 09:06:25;;;;;;;19.50;14.20;;;;;;;12.52;90.10;98896.17;224573;1283;22556;-78
2023/10/23 09:11:59;;;;;;;21.80;13.70;;;;;;;12.70;89.88;98891.21;224533;1286;22581;-77
2023/10/23 09:17:26;;;;;;;18.90;10.50;;;;;;;13.06;90.65;98891.27;224605;1283;22568;-78
2023/10/23 09:22:49;;;;;;;17.50;10.30;;;;;;;13.31;89.92;98890.40;224330;1288;22581;-78
2023/10/23 09:27:52;;;;;;;14.10;9.60;;;;;;;13.53;89.53;98881.60;224540;1286;22557;-78
2023/10/23 09:33:02;;;;;;;15.10;9.90;;;;;;;13.77;89.60;98879.98;224327;1282;22573;-78
2023/10/23 09:38:25;;;;;;;11.50;7.10;;;;;;;13.99;89.05;98876.86;224250;1288;22573;-77
2023/10/23 09:43:50;;;;;;;10.30;7.20;;;;;;;14.17;87.85;98873.22;224350;1283;22565;-77
2023/10/23 09:48:59;;;;;;;10.60;6.40;;;;;;;14.26;87.07;98872.05;224271;1283;23707;-77
2023/10/23 09:54:07;;;;;;;;;;;;;;;14.34;86.72;98867.93;224370;1283;22557;-78
2023/10/23 09:59:15;;;;;;;12.00;5.10;;;;;;;14.41;86.13;98862.94;224409;1286;22553;-78
2023/10/23 10:04:28;;;;;;;8.50;4.10;;;;;;;14.45;85.22;98861.66;224385;1286;23740;-78
2023/10/23 10:09:49;;;;;;;13.20;4.50;;;;;;;14.58;84.80;98855.59;224385;1283;25293;-78
2023/10/23 10:14:54;;;;;;;10.30;4.40;;;;;;;14.77;84.81;98850.83;224349;1284;22583;-78
2023/10/23 10:20:02;;;;;;;9.30;3.80;;;;;;;14.90;83.51;98844.79;224474;1284;24717;-77
2023/10/23 10:25:06;;;;;;;10.10;4.40;;;;;;;15.04;83.62;98840.60;224439;1283;23023;-78
2023/10/23 10:30:50;;;;;;;8.40;4.00;;;;;;;15.14;83.24;98834.95;224428;1274;22561;-78
2023/10/23 10:36:03;;;;;;;16.40;5.00;;;;;;;15.25;82.24;98832.97;224519;1283;22548;-78
2023/10/23 10:41:26;;;;;;;7.00;3.50;;;;;;;15.31;82.28;98830.08;224554;1271;22608;-77
2023/10/23 10:46:29;;;;;;;9.70;4.00;;;;;;;15.38;82.13;98823.92;224530;1283;22556;-77
2023/10/23 10:51:36;;;;;;;8.50;3.80;;;;;;;15.45;81.62;98815.21;224458;1286;24315;-76
2023/10/23 10:56:44;;;;;;;5.50;3.10;;;;;;;15.53;81.60;98813.29;224462;1286;22548;-76
2023/10/23 11:01:51;;;;;;;7.00;3.40;;;;;;;15.64;81.40;98813.68;224507;1289;24323;-77
2023/10/23 11:06:54;;;;;;;6.60;3.30;;;;;;;15.73;81.13;98814.66;224582;1285;23510;-76
2023/10/23 11:11:59;;;;;;;9.20;3.60;;;;;;;15.81;80.71;98809.83;224449;1276;22539;-77
2023/10/23 11:17:02;;;;;;;4.30;2.80;;;;;;;15.86;80.29;98809.99;224360;1285;22600;-77
2023/10/23 11:22:12;;;;;;;7.30;2.90;;;;;;;15.91;79.93;98815.55;224491;1283;22554;-77
2023/10/23 11:27:15;;;;;;;8.60;3.00;;;;;;;15.99;79.37;98811.13;224511;1270;22596;-77
2023/10/23 11:32:18;;;;;;;6.20;2.30;;;;;;;16.07;79.56;98803.72;224473;1284;22611;-77
2023/10/23 11:37:40;;;;;;;7.00;2.90;;;;;;;16.18;78.94;98802.48;224475;1286;22553;-78
2023/10/23 11:42:48;;;;;;;5.20;2.90;;;;;;;16.18;78.83;98799.28;224520;1285;22556;-77
2023/10/23 11:47:52;;;;;;;5.10;2.00;;;;;;;16.15;78.49;98805.61;224556;1270;22567;-77
2023/10/23 11:52:57;;;;;;;3.50;1.70;;;;;;;16.10;78.50;98804.23;224560;1283;23327;-78
2023/10/23 11:58:01;;;;;;;4.80;1.50;;;;;;;16.14;77.91;98805.33;224565;1274;22550;-78
2023/10/23 12:03:06;;;;;;;7.70;1.80;;;;;;;16.18;76.48;98804.99;224609;1282;22560;-77
2023/10/23 12:08:14;;;;;;;5.40;1.60;;;;;;;16.06;76.08;98808.73;224440;1273;22562;-77
2023/10/23 12:13:26;;;;;;;4.20;1.20;;;;;;;15.91;75.85;98811.82;224234;1283;22585;-77
2023/10/23 12:18:29;;;;;;;3.20;1.20;;;;;;;15.91;75.95;98806.23;224203;1283;24329;-78
2023/10/23 12:23:33;;;;;;;4.70;1.70;;;;;;;16.05;75.41;98796.69;224325;1285;22591;-77
2023/10/23 12:28:39;;;;;;;3.60;1.10;;;;;;;16.20;74.54;98790.70;224505;1283;22644;-78
2023/10/23 12:33:48;;;;;;;6.60;2.10;;;;;;;16.31;74.14;98783.66;224483;1285;22564;-77
2023/10/23 12:38:52;;;;;;;2.20;1.00;;;;;;;16.42;73.53;98782.30;224446;1273;22555;-77
2023/10/23 12:43:54;;;;;;;5.10;1.50;;;;;;;16.48;72.85;98786.35;224444;1271;23286;-77
2023/10/23 12:48:58;;;;;;;3.60;1.20;;;;;;;16.53;73.08;98777.63;224492;1279;22579;-77
2023/10/23 12:54:01;;;;;;;2.80;1.10;;;;;;;16.63;72.68;98778.70;224485;1283;22556;-78
2023/10/23 12:59:03;;;;;;;4.50;1.20;;;;;;;16.66;72.17;98773.70;224560;1286;25261;-74
2023/10/23 13:04:37;;;;;;;3.30;1.30;;;;;;;16.69;72.22;98762.13;224458;1285;22592;-75
2023/10/23 13:09:46;;;;;;;2.20;1.20;;;;;;;16.68;72.24;98764.56;224651;1285;22564;-78
2023/10/23 13:15:10;;;;;;;4.90;1.20;;;;;;;16.68;71.85;98770.23;224573;1285;22724;-78
2023/10/23 13:20:25;;;;;;;4.50;1.70;;;;;;;16.63;71.28;98769.88;224494;1283;22924;-80
2023/10/23 13:25:51;;;;;;;8.10;1.50;;;;;;;16.57;71.40;98770.23;224602;1277;22579;-76
2023/10/23 13:31:13;;;;;;;3.50;1.30;;;;;;;16.51;71.08;98766.61;224535;1283;23052;-78
2023/10/23 13:36:17;;;;;;;4.60;1.50;;;;;;;16.47;70.93;98763.71;224557;1285;23063;-74
2023/10/23 13:41:20;;;;;;;3.90;1.80;;;;;;;16.44;71.21;98763.44;224549;1279;22579;-73
2023/10/23 13:46:23;;;;;;;3.60;1.40;;;;;;;16.40;71.03;98758.61;224242;1283;302091;-74
2023/10/23 13:51:28;;;;;;;5.30;1.10;;;;;;;16.30;70.82;98757.23;224301;1287;22582;-73
2023/10/23 13:56:31;;;;;;;5.10;1.50;;;;;;;16.21;70.91;98751.83;224130;1273;25350;-75
2023/10/23 14:01:34;;;;;;;2.80;1.30;;;;;;;16.14;70.54;98748.49;224060;1286;22589;-75
2023/10/23 14:06:37;;;;;;;3.30;1.30;;;;;;;16.08;70.64;98747.04;224229;1286;22701;-74
2023/10/23 14:11:39;;;;;;;4.40;1.40;;;;;;;16.01;70.64;98742.58;224339;1283;24262;-76
2023/10/23 14:17:01;;;;;;;5.50;1.20;;;;;;;15.94;70.98;98740.49;224560;1289;22572;-74
2023/10/23 14:22:04;;;;;;;4.30;1.30;;;;;;;15.86;71.34;98742.52;224516;1272;22599;-74
2023/10/23 14:27:07;;;;;;;4.70;1.90;;;;;;;15.77;71.40;98743.15;224479;1286;25448;-75
2023/10/23 14:32:10;;;;;;;5.10;1.30;;;;;;;15.67;71.21;98746.59;224605;1286;22534;-76
2023/10/23 14:37:13;;;;;;;4.40;1.70;;;;;;;15.57;71.71;98743.23;224766;1286;24796;-75
2023/10/23 14:42:16;;;;;;;6.60;3.10;;;;;;;15.46;72.28;98744.92;224743;1289;22555;-75
2023/10/23 14:47:23;;;;;;;2.60;1.60;;;;;;;15.31;72.38;98745.67;224767;1286;22563;-74
2023/10/23 14:52:31;;;;;;;4.30;1.60;;;;;;;15.15;72.56;98743.95;224783;1289;22564;-74
2023/10/23 14:57:38;;;;;;;4.30;1.90;;;;;;;14.99;72.88;98743.66;224759;1279;24255;-74
2023/10/23 15:02:44;;;;;;;5.70;1.80;;;;;;;14.83;73.14;98745.67;224818;1283;22764;-76
2023/10/23 15:07:57;;;;;;;4.90;1.50;;;;;;;14.62;73.64;98737.75;224704;1267;22641;-76
2023/10/23 15:13:01;;;;;;;4.40;2.00;;;;;;;14.44;74.03;98741.21;224830;1289;22562;-74
2023/10/23 15:18:06;;;;;;;7.90;3.00;;;;;;;14.25;74.24;98734.84;224791;1286;22555;-74
2023/10/23 15:23:21;;;;;;;6.70;3.30;;;;;;;14.04;74.79;98739.48;224760;1289;22583;-74
2023/10/23 15:28:44;;;;;;;8.30;4.30;;;;;;;13.82;75.23;98734.13;224684;1289;22566;-74
2023/10/23 15:33:51;;;;;;;6.20;2.80;;;;;;;13.60;75.29;98733.70;224735;1289;22565;-74
2023/10/23 15:38:54;;;;;;;10.10;3.90;;;;;;;13.34;75.64;98731.32;224727;1286;22484;-74
2023/10/23 15:43:58;;;;;;;8.90;3.30;;;;;;;13.14;75.84;98736.46;224756;1289;22556;-74
2023/10/23 15:49:00;;;;;;;8.10;2.90;;;;;;;12.97;76.52;98735.84;224747;1289;22606;-74
2023/10/23 15:54:04;;;;;;;8.10;4.50;;;;;;;12.79;76.74;98736.65;224783;1286;22596;-74
2023/10/23 15:59:08;;;;;;;7.50;3.00;;;;;;;12.60;77.06;98738.55;224664;1286;22560;-74
2023/10/23 16:04:17;;;;;;;7.30;3.30;;;;;;;12.45;77.46;98733.71;224777;1282;22549;-75
2023/10/23 16:09:21;;;;;;;51.90;8.10;;;;;;;12.30;77.66;98728.26;224800;1286;23445;-74
2023/10/23 16:14:32;;;;;;;11.20;3.50;;;;;;;12.20;77.94;98727.33;224755;1289;22551;-74
2023/10/23 16:19:55;;;;;;;7.90;2.80;;;;;;;12.10;77.93;98718.27;224651;1290;22616;-74
2023/10/23 16:25:00;;;;;;;7.90;2.90;;;;;;;12.01;77.85;98719.94;224713;1286;22578;-74
2023/10/23 16:30:04;;;;;;;11.50;3.40;;;;;;;11.91;77.86;98722.73;224785;1286;22563;-74
2023/10/23 16:35:08;;;;;;;11.10;3.60;;;;;;;11.84;78.21;98722.65;224775;1289;22557;-74
2023/10/23 16:40:11;;;;;;;9.10;4.70;;;;;;;11.75;78.34;98721.81;224713;1289;22538;-74
2023/10/23 16:45:15;;;;;;;10.40;5.50;;;;;;;11.64;78.32;98723.17;224667;1289;22552;-74
2023/10/23 16:50:24;;;;;;;;;;;;;;;11.51;78.64;98724.48;224762;1289;22620;-74
2023/10/23 16:55:28;;;;;;;16.50;6.10;;;;;;;11.36;78.99;98730.51;224715;1286;22564;-75
2023/10/23 17:00:33;;;;;;;17.80;8.40;;;;;;;11.21;79.26;98733.26;224777;1289;22569;-74
2023/10/23 17:05:36;;;;;;;23.20;10.90;;;;;;;11.09;79.49;98729.84;224812;1283;22560;-74
2023/10/23 17:10:39;;;;;;;20.50;11.30;;;;;;;10.97;79.88;98727.99;224663;1288;22556;-74
2023/10/23 17:21:43;;;;;;;29.20;17.00;;;;;;;10.75;80.55;98719.20;224772;1289;24271;-74
2023/10/23 17:26:47;;;;;;;33.20;21.60;;;;;;;10.66;80.98;98715.42;224797;1270;22579;-74
2023/10/23 17:31:52;;;;;;;36.30;25.30;;;;;;;10.58;81.29;98711.77;224796;1286;22563;-76
2023/10/23 17:36:55;;;;;;;40.60;25.80;;;;;;;10.51;81.61;98715.25;224773;1286;22582;-74
2023/10/23 17:42:04;;;;;;;39.10;26.00;;;;;;;10.43;81.73;98715.04;224764;1283;23068;-75
2023/10/23 17:47:09;;;;;;;41.50;27.00;;;;;;;10.34;81.89;98709.11;224807;1289;23017;-75
2023/10/23 17:52:11;;;;;;;45.70;29.60;;;;;;;10.27;82.29;98711.10;224645;1289;25306;-74
2023/10/23 17:57:19;;;;;;;47.70;30.00;;;;;;;10.20;82.21;98708.59;224686;1288;22599;-74
2023/10/23 18:02:24;;;;;;;85.50;63.70;;;;;;;10.13;82.62;98710.22;224705;1289;22549;-74
2023/10/23 18:07:32;;;;;;;56.00;35.80;;;;;;;10.07;82.96;98705.22;224663;1289;22562;-75
2023/10/23 18:12:35;;;;;;;49.50;32.90;;;;;;;10.00;83.14;98701.19;224833;1286;22578;-75
2023/10/23 18:17:42;;;;;;;45.40;31.10;;;;;;;9.92;83.29;98701.76;224752;1286;22555;-75
2023/10/23 18:22:45;;;;;;;49.10;31.70;;;;;;;9.84;83.46;98694.27;224811;1283;22595;-75
2023/10/23 18:27:51;;;;;;;46.80;29.60;;;;;;;9.76;83.43;98681.40;224750;1283;22600;-75
2023/10/23 18:32:54;;;;;;;43.80;28.40;;;;;;;9.69;83.76;98674.45;224807;1283;22583;-75
2023/10/23 18:38:00;;;;;;;42.90;28.70;;;;;;;9.64;83.74;98673.20;224774;1282;22565;-74
2023/10/23 18:43:03;;;;;;;52.10;31.90;;;;;;;9.57;83.53;98680.86;224829;1282;22560;-75
2023/10/23 18:48:08;;;;;;;53.80;34.40;;;;;;;9.50;83.90;98685.17;224638;1289;22551;-74
2023/10/23 18:53:11;;;;;;;60.90;40.30;;;;;;;9.44;83.94;98683.48;224768;1283;22559;-74
2023/10/23 18:58:14;;;;;;;57.50;38.20;;;;;;;9.38;83.99;98682.17;224797;1283;22590;-75
2023/10/23 19:03:17;;;;;;;64.60;40.60;;;;;;;9.33;84.29;98681.63;224778;1283;25350;-74
2023/10/23 19:08:53;;;;;;;55.60;35.10;;;;;;;9.26;84.49;98684.03;224460;1292;22586;-75
2023/10/23 19:13:56;;;;;;;42.90;29.50;;;;;;;9.20;84.44;98679.11;224392;1272;22585;-74
2023/10/23 19:19:02;;;;;;;41.70;30.60;;;;;;;9.15;84.52;98677.12;224301;1293;25428;-74
2023/10/23 19:24:09;;;;;;;45.50;30.90;;;;;;;9.10;84.67;98677.29;224327;1270;24288;-74
2023/10/23 19:29:25;;;;;;;49.70;34.30;;;;;;;9.03;84.78;98674.52;224327;1293;26052;-75
2023/10/23 19:34:30;;;;;;;70.90;47.90;;;;;;;8.94;85.17;98672.73;224739;1289;22552;-74
2023/10/23 19:39:33;;;;;;;81.70;57.50;;;;;;;8.89;84.91;98682.20;224731;1289;22560;-74
2023/10/23 19:44:45;;;;;;;72.00;50.00;;;;;;;8.82;85.43;98684.29;224758;1289;25469;-73
2023/10/23 19:49:49;;;;;;;66.00;46.60;;;;;;;8.79;85.43;98686.06;224766;1286;22580;-74
2023/10/23 19:54:54;;;;;;;71.70;48.00;;;;;;;8.76;85.73;98684.89;224761;1286;22563;-75
2023/10/23 20:00:09;;;;;;;70.20;45.10;;;;;;;8.71;85.77;98675.64;224727;1289;22569;-74
2023/10/23 20:05:12;;;;;;;65.00;44.80;;;;;;;8.65;85.52;98678.55;224684;1289;22585;-75
2023/10/23 20:10:16;;;;;;;64.90;42.00;;;;;;;8.59;85.93;98684.94;224788;1285;22583;-74
2023/10/23 20:15:26;;;;;;;62.40;40.50;;;;;;;8.54;85.95;98683.63;224764;1282;24963;-75
2023/10/23 20:20:29;;;;;;;62.70;41.50;;;;;;;8.50;85.72;98678.77;224753;1286;22564;-74
2023/10/23 20:25:33;;;;;;;50.10;33.30;;;;;;;8.48;86.08;98669.84;224716;1286;23081;-74
2023/10/23 20:30:36;;;;;;;43.70;29.10;;;;;;;8.45;85.77;98665.27;224580;1289;22864;-74
2023/10/23 20:35:41;;;;;;;34.80;23.40;;;;;;;8.41;85.92;98668.98;224773;1287;22917;-74
2023/10/23 20:40:46;;;;;;;37.40;23.90;;;;;;;8.38;86.27;98677.98;224858;1286;22551;-74
2023/10/23 20:45:50;;;;;;;37.00;24.90;;;;;;;8.41;86.49;98679.81;224695;1289;22554;-75
2023/10/23 20:51:09;;;;;;;34.90;22.20;;;;;;;8.46;86.69;98671.34;224782;1285;22569;-74
2023/10/23 20:56:28;;;;;;;34.40;22.70;;;;;;;8.50;86.60;98670.35;224798;1286;24944;-74
2023/10/23 21:01:42;;;;;;;35.60;23.10;;;;;;;8.51;86.16;98667.61;224750;1289;22531;-74
2023/10/23 21:06:52;;;;;;;40.70;26.30;;;;;;;8.52;86.48;98667.63;224717;1289;24275;-74
2023/10/23 21:11:55;;;;;;;39.40;27.40;;;;;;;8.56;86.64;98667.38;224784;1286;22760;-74
2023/10/23 21:17:01;;;;;;;46.90;28.30;;;;;;;8.57;86.57;98661.81;224723;1283;22540;-74
2023/10/23 21:22:14;;;;;;;39.50;26.70;;;;;;;8.59;86.47;98651.72;224754;1283;22548;-74
2023/10/23 21:27:24;;;;;;;41.20;25.10;;;;;;;8.63;86.58;98642.45;224765;1289;22571;-73
2023/10/23 21:32:27;;;;;;;33.50;23.00;;;;;;;8.71;87.02;98629.42;224729;1283;23076;-74
2023/10/23 21:37:30;;;;;;;32.40;23.00;;;;;;;8.80;87.23;98622.41;224726;1286;22563;-74
2023/10/23 21:42:37;;;;;;;36.30;24.20;;;;;;;8.88;87.27;98609.75;224765;1289;22569;-74
2023/10/23 21:47:44;;;;;;;33.40;24.10;;;;;;;8.99;87.35;98606.27;224765;1283;22552;-74
2023/10/23 21:52:49;;;;;;;40.10;26.10;;;;;;;9.06;87.18;98601.60;224823;1289;22601;-75
2023/10/23 21:57:53;;;;;;;38.20;24.20;;;;;;;9.09;87.18;98582.02;224808;1286;22561;-74
2023/10/23 22:03:10;;;;;;;38.30;26.00;;;;;;;9.09;87.01;98570.06;224827;1286;22581;-74
2023/10/23 22:08:17;;;;;;;34.90;25.10;;;;;;;9.07;87.27;98566.43;224799;1288;22544;-74
2023/10/23 22:13:20;;;;;;;36.60;24.40;;;;;;;9.04;87.31;98554.23;224862;1289;22555;-75
2023/10/23 22:18:24;;;;;;;32.90;22.40;;;;;;;8.92;86.77;98550.23;224787;1289;22662;-74
2023/10/23 22:23:36;;;;;;;30.60;22.30;;;;;;;8.79;87.34;98561.80;224688;1289;22584;-74
2023/10/23 22:28:40;;;;;;;33.10;22.70;;;;;;;8.70;87.20;98582.14;224841;1283;22585;-74
2023/10/23 22:33:44;;;;;;;34.30;22.40;;;;;;;8.62;87.12;98572.91;224774;1289;22659;-75
2023/10/23 22:38:48;;;;;;;32.00;22.40;;;;;;;8.58;87.38;98557.10;224808;1285;24273;-74
2023/10/23 22:43:51;;;;;;;34.60;23.60;;;;;;;8.52;87.48;98558.30;224823;1283;22549;-74
2023/10/23 22:48:54;;;;;;;34.00;24.10;;;;;;;8.44;87.55;98549.60;224769;1289;23062;-74
2023/10/23 22:54:00;;;;;;;39.70;26.10;;;;;;;8.33;87.47;98557.40;224749;1289;24273;-74
2023/10/23 22:59:04;;;;;;;40.90;26.70;;;;;;;8.21;87.59;98555.08;224800;1289;22555;-74
2023/10/23 23:04:11;;;;;;;40.30;27.60;;;;;;;8.11;87.72;98550.77;224783;1285;22571;-74
2023/10/23 23:09:18;;;;;;;40.60;26.40;;;;;;;8.05;88.13;98548.34;224831;1286;22538;-73
2023/10/23 23:14:34;;;;;;;35.50;24.60;;;;;;;8.02;88.28;98544.11;224816;1286;22610;-73
2023/10/23 23:19:42;;;;;;;38.20;26.90;;;;;;;8.01;88.52;98540.40;224805;1283;22559;-74
2023/10/23 23:24:45;;;;;;;36.30;25.30;;;;;;;8.00;88.67;98533.90;224798;1279;22588;-74
2023/10/23 23:29:49;;;;;;;35.40;25.30;;;;;;;7.96;88.56;98519.30;224829;1286;22552;-76
2023/10/23 23:34:54;;;;;;;39.40;26.30;;;;;;;7.92;88.73;98523.36;224773;1289;25293;-74
2023/10/23 23:40:01;;;;;;;37.80;25.90;;;;;;;7.89;88.75;98527.42;224829;1289;22559;-74
2023/10/23 23:45:14;;;;;;;32.80;24.00;;;;;;;7.83;88.81;98523.91;224848;1289;24781;-74